Time;durP1;ratioP1;P1;durP2;ratioP2;P2;SDS_P1;SDS_P2;PMS_P1;PMS_P2;Temp;Humidity;BMP_temperature;BMP_pressure;BME280_temperature;BME280_humidity;BME280_pressure;Samples;Min_cycle;Max_cycle;Signal;HPM_P1;HPM_P2
2021/03/21 00:02:07;;;;;;;10.15;4.90;;;;;;;;;;5029626;28;20076;-64
2021/03/21 00:04:48;;;;;;;10.60;4.50;;;;;;;;;;2136060;28;10024446;-63
2021/03/21 00:07:16;;;;;;;10.25;5.13;;;;;;;;;;3639271;28;10001657;-65
2021/03/21 00:09:43;;;;;;;9.18;4.95;;;;;;;;;;5031749;28;20069;-63
2021/03/21 00:12:11;;;;;;;8.07;4.53;;;;;;;;;;5018913;28;20049;-64
2021/03/21 00:14:38;;;;;;;8.68;5.40;;;;;;;;;;5031716;28;20045;-64
2021/03/21 00:17:06;;;;;;;11.00;5.00;;;;;;;;;;5017911;28;20464;-65
2021/03/21 00:19:34;;;;;;;12.30;5.50;;;;;;;;;;5025276;28;20048;-63
2021/03/21 00:22:02;;;;;;;8.65;5.00;;;;;;;;;;5012458;28;20551;-64
2021/03/21 00:24:29;;;;;;;8.98;5.30;;;;;;;;;;5025943;28;20049;-63
2021/03/21 00:27:08;;;;;;;14.43;5.45;;;;;;;;;;5029623;28;20049;-64
2021/03/21 00:29:36;;;;;;;11.38;4.95;;;;;;;;;;5021806;28;20738;-63
2021/03/21 00:32:04;;;;;;;10.15;5.03;;;;;;;;;;5030981;28;20053;-64
2021/03/21 00:34:32;;;;;;;9.15;4.75;;;;;;;;;;5030752;28;20079;-64
2021/03/21 00:37:01;;;;;;;10.80;5.25;;;;;;;;;;5030966;28;20958;-64
2021/03/21 00:39:28;;;;;;;9.32;5.32;;;;;;;;;;5025557;28;20046;-65
2021/03/21 00:41:55;;;;;;;9.88;4.85;;;;;;;;;;5013056;28;20131;-64
2021/03/21 00:44:23;;;;;;;11.20;5.40;;;;;;;;;;5028073;28;20038;-65
2021/03/21 00:46:50;;;;;;;10.70;5.57;;;;;;;;;;5027257;28;20543;-63
2021/03/21 00:49:17;;;;;;;10.57;5.25;;;;;;;;;;5015277;28;20103;-64
2021/03/21 00:51:45;;;;;;;9.73;5.65;;;;;;;;;;5020913;28;20500;-64
2021/03/21 00:54:14;;;;;;;11.00;5.07;;;;;;;;;;5026619;28;20087;-64
2021/03/21 00:56:41;;;;;;;11.88;5.80;;;;;;;;;;5030924;28;20508;-64
2021/03/21 00:59:09;;;;;;;11.13;4.90;;;;;;;;;;5027927;28;20501;-63
2021/03/21 01:01:37;;;;;;;10.50;5.30;;;;;;;;;;5019215;28;20045;-64
2021/03/21 01:04:05;;;;;;;9.02;5.53;;;;;;;;;;5022891;28;20076;-64
2021/03/21 01:06:33;;;;;;;10.52;4.70;;;;;;;;;;5020075;28;20560;-63
2021/03/21 01:09:02;;;;;;;9.13;5.28;;;;;;;;;;5021083;28;20417;-64
2021/03/21 01:11:31;;;;;;;12.13;5.13;;;;;;;;;;5022189;28;20132;-63
2021/03/21 01:13:58;;;;;;;9.95;4.88;;;;;;;;;;5013589;28;20135;-63
2021/03/21 01:16:27;;;;;;;10.82;5.95;;;;;;;;;;5011441;28;20107;-64
2021/03/21 01:18:55;;;;;;;8.57;5.32;;;;;;;;;;5030370;28;20089;-63
2021/03/21 01:21:23;;;;;;;10.93;4.82;;;;;;;;;;5031462;28;20089;-63
2021/03/21 01:23:51;;;;;;;9.70;4.90;;;;;;;;;;5011970;28;20571;-63
2021/03/21 01:26:19;;;;;;;9.80;4.80;;;;;;;;;;5011668;28;20060;-64
2021/03/21 01:28:48;;;;;;;9.48;5.38;;;;;;;;;;5028087;28;20045;-64
2021/03/21 01:31:16;;;;;;;9.65;4.60;;;;;;;;;;5014428;28;20046;-64
2021/03/21 01:33:44;;;;;;;9.10;4.78;;;;;;;;;;5024595;28;20064;-63
2021/03/21 01:36:13;;;;;;;9.02;4.95;;;;;;;;;;5019571;28;20045;-64
2021/03/21 01:38:40;;;;;;;11.73;5.75;;;;;;;;;;5029798;28;20512;-63
2021/03/21 01:41:17;;;;;;;9.90;5.75;;;;;;;;;;5030116;28;20132;-64
2021/03/21 01:43:44;;;;;;;11.25;5.18;;;;;;;;;;5030489;28;20170;-64
2021/03/21 01:46:15;;;;;;;12.60;5.00;;;;;;;;;;5030973;28;20465;-63
2021/03/21 01:48:46;;;;;;;10.43;4.75;;;;;;;;;;5028922;28;20058;-64
2021/03/21 01:51:14;;;;;;;10.63;5.00;;;;;;;;;;5031131;28;20049;-64
2021/03/21 01:53:43;;;;;;;8.10;4.80;;;;;;;;;;5012537;28;20087;-65
2021/03/21 01:56:11;;;;;;;12.40;4.90;;;;;;;;;;5011631;28;20135;-63
2021/03/21 01:58:40;;;;;;;9.25;4.90;;;;;;;;;;5010726;28;20162;-64
2021/03/21 02:01:10;;;;;;;7.22;4.30;;;;;;;;;;5014274;28;20424;-64
2021/03/21 02:03:38;;;;;;;10.40;5.18;;;;;;;;;;5492168;22;20140;-64
2021/03/21 02:06:15;;;;;;;8.30;4.53;;;;;;;;;;5014276;28;20053;-63
2021/03/21 02:08:52;;;;;;;11.88;5.18;;;;;;;;;;5001991;28;20129;-63
2021/03/21 02:11:24;;;;;;;9.73;4.63;;;;;;;;;;4994725;28;20082;-63
2021/03/21 02:13:54;;;;;;;10.82;4.60;;;;;;;;;;5012338;28;20138;-63
2021/03/21 02:16:24;;;;;;;11.38;4.78;;;;;;;;;;5009614;28;20153;-63
2021/03/21 02:18:57;;;;;;;9.27;4.68;;;;;;;;;;5009699;28;20050;-63
2021/03/21 02:21:30;;;;;;;9.05;4.88;;;;;;;;;;5009740;28;20545;-63
2021/03/21 02:24:13;;;;;;;9.30;5.22;;;;;;;;;;5011565;28;20141;-63
2021/03/21 02:26:52;;;;;;;9.18;4.18;;;;;;;;;;5013842;28;20420;-63
2021/03/21 02:29:31;;;;;;;8.70;4.38;;;;;;;;;;5013736;28;20050;-63
2021/03/21 02:32:02;;;;;;;8.73;4.57;;;;;;;;;;5013231;28;20069;-63
2021/03/21 02:34:34;;;;;;;8.20;4.20;;;;;;;;;;5013790;28;20045;-63
2021/03/21 02:37:05;;;;;;;7.78;4.38;;;;;;;;;;5013967;28;20581;-63
2021/03/21 02:39:36;;;;;;;10.63;5.28;;;;;;;;;;5000347;28;20070;-63
2021/03/21 02:42:06;;;;;;;7.72;4.35;;;;;;;;;;5004713;28;20125;-63
2021/03/21 02:44:38;;;;;;;10.88;4.85;;;;;;;;;;5010082;28;20121;-63
2021/03/21 02:47:08;;;;;;;8.68;4.63;;;;;;;;;;5006008;28;20058;-63
2021/03/21 02:49:38;;;;;;;7.82;4.88;;;;;;;;;;5000072;28;20038;-63
2021/03/21 02:52:08;;;;;;;9.25;4.63;;;;;;;;;;5010544;28;20073;-63
2021/03/21 02:54:36;;;;;;;11.35;4.88;;;;;;;;;;5006135;28;20081;-63
2021/03/21 02:57:06;;;;;;;9.80;4.43;;;;;;;;;;5006416;28;20073;-63
2021/03/21 02:59:37;;;;;;;8.57;4.47;;;;;;;;;;5004323;28;20512;-63
2021/03/21 03:02:07;;;;;;;10.02;4.53;;;;;;;;;;5005896;28;20046;-63
2021/03/21 03:04:37;;;;;;;8.60;4.63;;;;;;;;;;4999093;28;20054;-63
2021/03/21 03:07:07;;;;;;;7.85;4.65;;;;;;;;;;4996348;28;20488;-63
2021/03/21 03:09:39;;;;;;;9.82;5.03;;;;;;;;;;4998697;28;20140;-63
2021/03/21 03:12:09;;;;;;;9.35;5.20;;;;;;;;;;4999922;28;20057;-63
2021/03/21 03:14:39;;;;;;;9.18;4.43;;;;;;;;;;4999079;28;20042;-63
2021/03/21 03:17:08;;;;;;;9.15;4.65;;;;;;;;;;4999785;28;20112;-63
2021/03/21 03:19:40;;;;;;;8.43;4.50;;;;;;;;;;4998970;28;20418;-63
2021/03/21 03:22:14;;;;;;;6.90;4.30;;;;;;;;;;4997927;28;20152;-63
2021/03/21 03:24:46;;;;;;;8.50;4.22;;;;;;;;;;4999600;28;20077;-63
2021/03/21 03:27:15;;;;;;;8.73;4.63;;;;;;;;;;4997278;28;20185;-63
2021/03/21 03:29:48;;;;;;;8.00;4.55;;;;;;;;;;5000808;28;20142;-63
2021/03/21 03:32:15;;;;;;;8.20;4.60;;;;;;;;;;5001381;28;20042;-63
2021/03/21 03:34:45;;;;;;;8.20;4.50;;;;;;;;;;4999175;28;20042;-64
2021/03/21 03:37:13;;;;;;;8.93;4.13;;;;;;;;;;4998699;28;20136;-64
2021/03/21 03:39:41;;;;;;;8.88;4.50;;;;;;;;;;4998982;28;20509;-64
2021/03/21 03:42:12;;;;;;;10.73;4.55;;;;;;;;;;5000504;28;20104;-64
2021/03/21 03:44:41;;;;;;;9.15;4.50;;;;;;;;;;4998692;28;20676;-65
2021/03/21 03:47:15;;;;;;;10.75;4.85;;;;;;;;;;4999013;28;20128;-65
2021/03/21 03:49:46;;;;;;;9.85;5.13;;;;;;;;;;4981414;28;20410;-65
2021/03/21 03:52:24;;;;;;;8.43;4.72;;;;;;;;;;5002956;28;20041;-65
2021/03/21 03:54:56;;;;;;;9.05;4.25;;;;;;;;;;4999211;28;20050;-65
2021/03/21 03:57:26;;;;;;;9.82;4.30;;;;;;;;;;5000834;28;20049;-65
2021/03/21 04:00:04;;;;;;;9.13;4.88;;;;;;;;;;5004175;28;20080;-65
2021/03/21 04:02:40;;;;;;;10.40;5.03;;;;;;;;;;5000795;28;20437;-65
2021/03/21 04:05:11;;;;;;;10.13;5.15;;;;;;;;;;4997482;28;20148;-65
2021/03/21 04:07:41;;;;;;;7.40;4.18;;;;;;;;;;4996537;28;20058;-65
2021/03/21 04:10:11;;;;;;;9.48;4.72;;;;;;;;;;4996973;28;20053;-65
2021/03/21 04:12:42;;;;;;;8.73;4.93;;;;;;;;;;4998993;28;20046;-65
2021/03/21 04:15:14;;;;;;;9.35;4.68;;;;;;;;;;4996922;28;20053;-65
2021/03/21 04:17:45;;;;;;;7.82;4.53;;;;;;;;;;4997717;28;20133;-65
2021/03/21 04:20:16;;;;;;;9.93;4.93;;;;;;;;;;4997506;28;20049;-63
2021/03/21 04:22:46;;;;;;;8.13;4.47;;;;;;;;;;4996917;28;21439;-63
2021/03/21 04:25:15;;;;;;;9.23;4.35;;;;;;;;;;4998490;28;20141;-63
2021/03/21 04:27:46;;;;;;;10.00;4.75;;;;;;;;;;4998074;28;20046;-65
2021/03/21 04:30:15;;;;;;;7.85;4.05;;;;;;;;;;4997679;28;21396;-63
2021/03/21 04:32:45;;;;;;;9.35;4.90;;;;;;;;;;4998701;28;20057;-64
2021/03/21 04:35:21;;;;;;;11.10;4.47;;;;;;;;;;4997244;28;20061;-64
2021/03/21 04:37:51;;;;;;;8.88;4.22;;;;;;;;;;4996481;28;20090;-64
2021/03/21 04:40:19;;;;;;;9.25;4.68;;;;;;;;;;4996597;28;20589;-64
2021/03/21 04:42:48;;;;;;;7.90;4.40;;;;;;;;;;4998510;28;20073;-64
2021/03/21 04:45:17;;;;;;;11.38;5.13;;;;;;;;;;4999153;28;20044;-64
2021/03/21 04:47:48;;;;;;;10.15;4.57;;;;;;;;;;4994680;28;20180;-64
2021/03/21 04:50:17;;;;;;;10.27;4.47;;;;;;;;;;4995452;28;20038;-64
2021/03/21 04:52:48;;;;;;;12.27;4.40;;;;;;;;;;4999093;28;20159;-64
2021/03/21 04:55:17;;;;;;;7.53;4.10;;;;;;;;;;5000224;28;20125;-64
2021/03/21 04:57:51;;;;;;;9.32;4.28;;;;;;;;;;5010247;28;20153;-64
2021/03/21 05:00:36;;;;;;;9.15;4.65;;;;;;;;;;5002503;28;20153;-64
2021/03/21 05:03:09;;;;;;;7.93;4.10;;;;;;;;;;4998769;28;20054;-64
2021/03/21 05:05:39;;;;;;;8.88;4.32;;;;;;;;;;5009407;28;20465;-64
2021/03/21 05:08:08;;;;;;;9.80;4.40;;;;;;;;;;5005134;28;20058;-64
2021/03/21 05:10:37;;;;;;;7.93;4.10;;;;;;;;;;5013235;28;20081;-64
2021/03/21 05:13:06;;;;;;;10.93;4.75;;;;;;;;;;5014075;28;20088;-64
2021/03/21 05:15:39;;;;;;;9.63;3.97;;;;;;;;;;4994055;28;20100;-64
2021/03/21 05:18:15;;;;;;;8.07;4.20;;;;;;;;;;5009088;28;20061;-64
2021/03/21 05:20:46;;;;;;;6.97;4.20;;;;;;;;;;5008020;28;20050;-64
2021/03/21 05:23:28;;;;;;;9.52;4.20;;;;;;;;;;5007824;28;20381;-64
2021/03/21 05:25:57;;;;;;;7.30;4.65;;;;;;;;;;4993644;28;20078;-64
2021/03/21 05:28:40;;;;;;;6.90;3.28;;;;;;;;;;4999701;28;20141;-64
2021/03/21 05:31:07;;;;;;;9.40;4.57;;;;;;;;;;5003511;28;20113;-64
2021/03/21 05:33:36;;;;;;;7.75;3.90;;;;;;;;;;5000272;28;20054;-64
2021/03/21 05:36:08;;;;;;;7.95;4.43;;;;;;;;;;4995845;28;20085;-64
2021/03/21 05:38:41;;;;;;;8.63;4.60;;;;;;;;;;4992247;28;20248;-64
2021/03/21 05:41:26;;;;;;;9.05;4.43;;;;;;;;;;4998326;28;20125;-64
2021/03/21 05:44:11;;;;;;;7.28;3.53;;;;;;;;;;4997846;28;20081;-64
2021/03/21 05:47:02;;;;;;;9.23;4.10;;;;;;;;;;4958669;28;20048;-64
2021/03/21 05:49:38;;;;;;;11.68;4.72;;;;;;;;;;4988093;28;20058;-64
2021/03/21 05:52:27;;;;;;;6.35;3.60;;;;;;;;;;5006448;28;20145;-64
2021/03/21 05:55:09;;;;;;;6.57;3.58;;;;;;;;;;5001468;28;20129;-64
2021/03/21 05:57:46;;;;;;;11.18;4.43;;;;;;;;;;4993186;28;20121;-64
2021/03/21 06:00:39;;;;;;;7.80;4.53;;;;;;;;;;5003698;28;20093;-64
2021/03/21 06:03:12;;;;;;;6.53;3.35;;;;;;;;;;5002171;28;20053;-64
2021/03/21 06:05:58;;;;;;;8.43;3.63;;;;;;;;;;5008021;28;20135;-64
2021/03/21 06:08:30;;;;;;;6.60;3.53;;;;;;;;;;4999262;28;20082;-64
2021/03/21 06:11:18;;;;;;;7.30;3.33;;;;;;;;;;5000362;28;20054;-64
2021/03/21 06:14:09;;;;;;;8.95;3.28;;;;;;;;;;4999450;28;20062;-64
2021/03/21 06:16:42;;;;;;;10.43;3.63;;;;;;;;;;4964324;28;20434;-64
2021/03/21 06:19:29;;;;;;;5.90;3.53;;;;;;;;;;4993157;28;20125;-64
2021/03/21 06:22:13;;;;;;;7.28;3.30;;;;;;;;;;5007925;28;20116;-64
2021/03/21 06:24:51;;;;;;;9.35;3.70;;;;;;;;;;4992909;28;20082;-64
2021/03/21 06:27:39;;;;;;;5.68;3.72;;;;;;;;;;4991056;28;20086;-64
2021/03/21 06:30:19;;;;;;;6.68;3.30;;;;;;;;;;4992060;28;20046;-64
2021/03/21 06:32:59;;;;;;;6.78;3.70;;;;;;;;;;4992151;28;20121;-64
2021/03/21 06:35:44;;;;;;;7.75;3.67;;;;;;;;;;4991959;28;20910;-64
2021/03/21 06:38:27;;;;;;;9.57;3.15;;;;;;;;;;5000424;28;20070;-64
2021/03/21 06:41:16;;;;;;;7.22;3.22;;;;;;;;;;5005876;28;20564;-64
2021/03/21 06:43:47;;;;;;;5.40;3.33;;;;;;;;;;4997467;28;20132;-64
2021/03/21 06:46:32;;;;;;;5.97;3.20;;;;;;;;;;5008645;28;20077;-64
2021/03/21 06:49:24;;;;;;;5.78;3.35;;;;;;;;;;4985588;28;20046;-64
2021/03/21 06:51:57;;;;;;;9.05;3.17;;;;;;;;;;5002683;28;20534;-64
2021/03/21 06:54:44;;;;;;;8.30;3.85;;;;;;;;;;5003823;28;20576;-64
2021/03/21 06:57:30;;;;;;;7.18;3.42;;;;;;;;;;4989369;28;20470;-65
2021/03/21 07:00:18;;;;;;;8.93;3.78;;;;;;;;;;4963674;28;20547;-64
2021/03/21 07:03:04;;;;;;;5.45;3.30;;;;;;;;;;5003520;28;20437;-64
2021/03/21 07:05:44;;;;;;;12.45;4.00;;;;;;;;;;5009765;28;20039;-64
2021/03/21 07:08:31;;;;;;;9.07;3.75;;;;;;;;;;5020121;28;20081;-64
2021/03/21 07:11:15;;;;;;;9.93;3.20;;;;;;;;;;4995319;28;20110;-64
2021/03/21 07:14:10;;;;;;;9.68;3.53;;;;;;;;;;5003181;28;20050;-64
2021/03/21 07:17:05;;;;;;;7.82;3.50;;;;;;;;;;4960051;28;20068;-65
2021/03/21 07:19:43;;;;;;;8.10;3.50;;;;;;;;;;4994982;28;20132;-65
2021/03/21 07:22:22;;;;;;;5.80;3.13;;;;;;;;;;5004698;28;20108;-65
2021/03/21 07:24:57;;;;;;;8.70;3.45;;;;;;;;;;4998636;28;20117;-65
2021/03/21 07:27:44;;;;;;;5.07;2.35;;;;;;;;;;4997069;28;20050;-65
2021/03/21 07:30:13;;;;;;;5.68;3.25;;;;;;;;;;5008073;28;20050;-65
2021/03/21 07:32:48;;;;;;;7.95;3.38;;;;;;;;;;5009136;28;20073;-65
2021/03/21 07:35:40;;;;;;;6.10;3.30;;;;;;;;;;4998001;28;20050;-65
2021/03/21 07:38:14;;;;;;;5.63;3.35;;;;;;;;;;4977674;28;20054;-65
2021/03/21 07:40:48;;;;;;;7.67;3.43;;;;;;;;;;4993588;28;20096;-65
2021/03/21 07:43:35;;;;;;;7.23;3.03;;;;;;;;;;5002254;28;20042;-65
2021/03/21 07:46:13;;;;;;;7.70;3.33;;;;;;;;;;4999202;28;20540;-65
2021/03/21 07:48:50;;;;;;;6.50;3.03;;;;;;;;;;5001383;28;20575;-65
2021/03/21 07:51:20;;;;;;;6.35;3.22;;;;;;;;;;4994357;28;20576;-65
2021/03/21 07:53:54;;;;;;;7.25;3.22;;;;;;;;;;4996344;28;20046;-65
2021/03/21 07:56:24;;;;;;;6.20;2.90;;;;;;;;;;4990436;28;20050;-65
2021/03/21 07:58:56;;;;;;;9.45;3.17;;;;;;;;;;4994130;28;20050;-65
2021/03/21 08:01:23;;;;;;;10.82;3.17;;;;;;;;;;4989905;28;20133;-65
2021/03/21 08:03:55;;;;;;;5.13;2.92;;;;;;;;;;4992402;28;20561;-65
2021/03/21 08:06:27;;;;;;;5.43;2.50;;;;;;;;;;4998124;28;20086;-65
2021/03/21 08:08:57;;;;;;;6.05;3.10;;;;;;;;;;4991782;28;20137;-65
2021/03/21 08:11:28;;;;;;;6.63;2.83;;;;;;;;;;4988834;28;20104;-65
2021/03/21 08:13:59;;;;;;;4.50;2.53;;;;;;;;;;4991058;28;20193;-66
2021/03/21 08:16:28;;;;;;;5.82;3.00;;;;;;;;;;4991110;28;20049;-65
2021/03/21 08:18:56;;;;;;;4.30;2.80;;;;;;;;;;4988512;28;20085;-66
2021/03/21 08:21:26;;;;;;;7.80;3.47;;;;;;;;;;4996631;28;20047;-65
2021/03/21 08:23:56;;;;;;;8.18;3.25;;;;;;;;;;5002301;28;20108;-65
2021/03/21 08:26:27;;;;;;;5.15;2.80;;;;;;;;;;4992135;28;20065;-65
2021/03/21 08:28:59;;;;;;;6.05;2.80;;;;;;;;;;4998969;28;20042;-65
2021/03/21 08:31:31;;;;;;;8.38;3.10;;;;;;;;;;4991295;28;20077;-71
2021/03/21 08:34:13;;;;;;;6.22;3.00;;;;;;;;;;4996632;28;20062;-71
2021/03/21 08:36:42;;;;;;;5.57;2.38;;;;;;;;;;4999708;28;20060;-71
2021/03/21 08:39:16;;;;;;;12.05;3.80;;;;;;;;;;5002399;28;20058;-71
2021/03/21 08:41:49;;;;;;;6.40;3.00;;;;;;;;;;4994439;28;20052;-71
2021/03/21 08:44:26;;;;;;;6.28;3.03;;;;;;;;;;4996541;28;20096;-71
2021/03/21 08:46:53;;;;;;;6.63;2.90;;;;;;;;;;5001369;28;20045;-71
2021/03/21 08:49:24;;;;;;;9.48;3.35;;;;;;;;;;4998663;28;20050;-71
2021/03/21 08:51:52;;;;;;;4.60;2.58;;;;;;;;;;4997457;28;20092;-71
2021/03/21 08:54:23;;;;;;;6.95;2.72;;;;;;;;;;4999099;28;20046;-71
2021/03/21 08:56:58;;;;;;;6.35;3.30;;;;;;;;;;4992529;28;20086;-71
2021/03/21 08:59:28;;;;;;;7.30;3.00;;;;;;;;;;4992023;28;20074;-71
2021/03/21 09:02:04;;;;;;;4.80;2.58;;;;;;;;;;5003801;28;20157;-71
2021/03/21 09:04:32;;;;;;;9.07;3.35;;;;;;;;;;5009520;28;20057;-71
2021/03/21 09:07:16;;;;;;;5.53;2.80;;;;;;;;;;4994562;28;20038;-71
2021/03/21 09:09:43;;;;;;;8.10;2.90;;;;;;;;;;4988324;28;20078;-71
2021/03/21 09:12:35;;;;;;;6.38;3.30;;;;;;;;;;4994963;28;20108;-69
2021/03/21 09:15:19;;;;;;;8.68;3.13;;;;;;;;;;4987009;28;20046;-70
2021/03/21 09:18:00;;;;;;;7.20;3.33;;;;;;;;;;4991167;28;20102;-70
2021/03/21 09:20:28;;;;;;;7.63;3.13;;;;;;;;;;4993209;28;20046;-70
2021/03/21 09:22:57;;;;;;;6.22;2.95;;;;;;;;;;4991457;28;20046;-70
2021/03/21 09:25:26;;;;;;;7.65;3.15;;;;;;;;;;4991703;28;20068;-70
2021/03/21 09:27:55;;;;;;;5.72;2.78;;;;;;;;;;4999612;28;20064;-70
2021/03/21 09:30:36;;;;;;;6.72;3.40;;;;;;;;;;4995194;28;20061;-69
2021/03/21 09:33:06;;;;;;;10.25;3.47;;;;;;;;;;5008297;28;20112;-69
2021/03/21 09:35:37;;;;;;;6.88;2.95;;;;;;;;;;5006620;28;20051;-69
2021/03/21 09:38:09;;;;;;;8.05;2.83;;;;;;;;;;4990941;28;20062;-70
2021/03/21 09:40:38;;;;;;;5.85;3.35;;;;;;;;;;4991729;28;20042;-70
2021/03/21 09:43:11;;;;;;;7.55;3.00;;;;;;;;;;4991605;28;20090;-70
2021/03/21 09:45:40;;;;;;;9.50;3.60;;;;;;;;;;5003154;28;20069;-64
2021/03/21 09:48:14;;;;;;;10.95;3.95;;;;;;;;;;4990618;28;20042;-65
2021/03/21 09:50:48;;;;;;;7.03;3.72;;;;;;;;;;4997123;28;20129;-65
2021/03/21 09:53:35;;;;;;;5.53;3.33;;;;;;;;;;4996886;28;20049;-65
2021/03/21 09:56:06;;;;;;;7.22;3.17;;;;;;;;;;5004668;28;20121;-65
2021/03/21 09:58:37;;;;;;;5.60;2.90;;;;;;;;;;4996540;28;20042;-65
2021/03/21 10:01:09;;;;;;;6.53;3.50;;;;;;;;;;4993412;28;20078;-65
2021/03/21 10:03:37;;;;;;;9.65;3.17;;;;;;;;;;5006053;28;20101;-66
2021/03/21 10:06:07;;;;;;;5.97;3.47;;;;;;;;;;5004869;28;20418;-64
2021/03/21 10:08:44;;;;;;;6.65;2.90;;;;;;;;;;4995574;28;20092;-65
2021/03/21 10:11:14;;;;;;;5.18;3.25;;;;;;;;;;4992254;28;20104;-65
2021/03/21 10:13:45;;;;;;;10.32;3.58;;;;;;;;;;4995184;28;20093;-66
2021/03/21 10:16:28;;;;;;;7.15;3.08;;;;;;;;;;4994794;28;20174;-65
2021/03/21 10:18:56;;;;;;;7.18;3.63;;;;;;;;;;4990461;28;20074;-64
2021/03/21 10:21:31;;;;;;;6.50;3.38;;;;;;;;;;4993073;28;20043;-65
2021/03/21 10:23:59;;;;;;;;;;;;;;;;;;4991921;28;20461;-64
2021/03/21 10:26:28;;;;;;;7.22;3.60;;;;;;;;;;4998775;28;19994;-66
2021/03/21 10:28:56;;;;;;;6.15;3.25;;;;;;;;;;5004836;28;20054;-65
2021/03/21 10:31:28;;;;;;;10.80;3.85;;;;;;;;;;4996832;28;20054;-65
2021/03/21 10:33:56;;;;;;;5.15;3.03;;;;;;;;;;5003840;28;20066;-66
2021/03/21 10:36:43;;;;;;;9.05;3.42;;;;;;;;;;5002680;28;20057;-66
2021/03/21 10:39:12;;;;;;;8.82;3.75;;;;;;;;;;4994379;28;20132;-65
2021/03/21 10:41:57;;;;;;;8.05;3.47;;;;;;;;;;4996977;28;20054;-65
2021/03/21 10:44:44;;;;;;;9.15;3.10;;;;;;;;;;4995993;28;20074;-65
2021/03/21 10:47:12;;;;;;;8.35;3.70;;;;;;;;;;4997625;28;20045;-65
2021/03/21 10:49:47;;;;;;;8.73;4.20;;;;;;;;;;5003386;28;20057;-66
2021/03/21 10:52:21;;;;;;;6.53;3.63;;;;;;;;;;4994198;28;20129;-66
2021/03/21 10:54:49;;;;;;;7.90;3.92;;;;;;;;;;4995055;28;20463;-66
2021/03/21 10:57:42;;;;;;;12.88;3.85;;;;;;;;;;4997165;28;20125;-66
2021/03/21 11:00:12;;;;;;;9.55;3.75;;;;;;;;;;4995188;28;20061;-65
2021/03/21 11:02:42;;;;;;;7.10;2.97;;;;;;;;;;4994451;28;20382;-65
2021/03/21 11:05:25;;;;;;;7.53;3.85;;;;;;;;;;5013596;28;20049;-65
2021/03/21 11:08:03;;;;;;;10.10;4.28;;;;;;;;;;5004994;28;20042;-65
2021/03/21 11:10:31;;;;;;;6.53;4.20;;;;;;;;;;4997355;28;20057;-65
2021/03/21 11:13:00;;;;;;;8.57;3.83;;;;;;;;;;5007844;28;20056;-68
2021/03/21 11:15:38;;;;;;;7.80;3.85;;;;;;;;;;4998967;28;20045;-66
2021/03/21 11:18:08;;;;;;;9.55;4.55;;;;;;;;;;4996331;28;20046;-65
2021/03/21 11:20:37;;;;;;;7.50;3.10;;;;;;;;;;4996469;28;20482;-66
2021/03/21 11:23:09;;;;;;;8.20;4.28;;;;;;;;;;4994175;28;20530;-67
2021/03/21 11:25:38;;;;;;;8.85;4.13;;;;;;;;;;5007656;28;20161;-65
2021/03/21 11:28:07;;;;;;;10.18;4.00;;;;;;;;;;5002132;28;20054;-71
2021/03/21 11:30:35;;;;;;;8.48;3.95;;;;;;;;;;5009657;28;20490;-71
2021/03/21 11:33:19;;;;;;;8.40;4.45;;;;;;;;;;5016749;28;20133;-71
2021/03/21 11:35:51;;;;;;;10.00;4.15;;;;;;;;;;4994086;28;20487;-72
2021/03/21 11:38:28;;;;;;;11.82;3.75;;;;;;;;;;5004165;28;20057;-71
2021/03/21 11:40:56;;;;;;;10.68;4.80;;;;;;;;;;5012729;28;20092;-70
2021/03/21 11:43:27;;;;;;;11.50;4.53;;;;;;;;;;5009569;28;20107;-72
2021/03/21 11:45:56;;;;;;;10.55;4.45;;;;;;;;;;5008374;28;20050;-69
2021/03/21 11:48:29;;;;;;;10.55;4.65;;;;;;;;;;5007332;28;20093;-70
2021/03/21 11:50:57;;;;;;;14.25;4.88;;;;;;;;;;5012121;28;20050;-70
2021/03/21 11:53:27;;;;;;;18.17;5.30;;;;;;;;;;5003733;28;20041;-65
2021/03/21 11:55:56;;;;;;;11.20;4.25;;;;;;;;;;5003397;28;20064;-65
2021/03/21 11:58:26;;;;;;;13.52;4.72;;;;;;;;;;4995264;28;20475;-67
2021/03/21 12:00:57;;;;;;;9.43;5.32;;;;;;;;;;5009191;28;20089;-67
2021/03/21 12:03:25;;;;;;;9.90;4.63;;;;;;;;;;5005014;28;20054;-65
2021/03/21 12:06:20;;;;;;;12.90;4.97;;;;;;;;;;4997535;28;20073;-66
2021/03/21 12:08:48;;;;;;;13.07;4.65;;;;;;;;;;4993059;28;20100;-66
2021/03/21 12:11:17;;;;;;;10.43;4.70;;;;;;;;;;5001121;28;20050;-67
2021/03/21 12:13:45;;;;;;;13.65;5.72;;;;;;;;;;5009449;28;20061;-67
2021/03/21 12:16:33;;;;;;;12.25;5.32;;;;;;;;;;5012393;28;20046;-66
2021/03/21 12:19:03;;;;;;;16.98;5.45;;;;;;;;;;5004316;28;20062;-64
2021/03/21 12:21:34;;;;;;;10.93;5.45;;;;;;;;;;4999020;28;20046;-67
2021/03/21 12:24:08;;;;;;;11.68;4.45;;;;;;;;;;4996786;28;20038;-65
2021/03/21 12:26:51;;;;;;;12.55;4.50;;;;;;;;;;5000698;28;20115;-66
2021/03/21 12:29:37;;;;;;;14.68;5.95;;;;;;;;;;4994288;28;20121;-66
2021/03/21 12:32:22;;;;;;;12.68;4.60;;;;;;;;;;4993713;28;20061;-67
2021/03/21 12:34:51;;;;;;;11.27;6.00;;;;;;;;;;4997602;28;20155;-65
2021/03/21 12:37:20;;;;;;;10.60;4.88;;;;;;;;;;4997903;28;20049;-66
2021/03/21 12:39:49;;;;;;;13.63;4.97;;;;;;;;;;4999876;28;20046;-66
2021/03/21 12:42:33;;;;;;;10.75;4.82;;;;;;;;;;4994281;28;20395;-66
2021/03/21 12:45:14;;;;;;;15.73;5.72;;;;;;;;;;4995443;28;20053;-67
2021/03/21 12:47:42;;;;;;;11.68;5.70;;;;;;;;;;4991090;28;20065;-66
2021/03/21 12:50:30;;;;;;;11.65;5.38;;;;;;;;;;4995475;28;20050;-66
2021/03/21 12:52:59;;;;;;;11.88;5.50;;;;;;;;;;4995044;28;20116;-65
2021/03/21 12:55:26;;;;;;;13.55;6.18;;;;;;;;;;5005907;28;20132;-66
2021/03/21 12:57:54;;;;;;;11.25;5.72;;;;;;;;;;4991651;28;20042;-66
2021/03/21 13:00:22;;;;;;;10.40;5.28;;;;;;;;;;4992264;28;20066;-66
2021/03/21 13:02:52;;;;;;;18.98;9.60;;;;;;;;;;5007301;28;20505;-66
2021/03/21 13:05:21;;;;;;;16.60;6.60;;;;;;;;;;5010410;28;20107;-66
2021/03/21 13:07:50;;;;;;;11.40;5.80;;;;;;;;;;4990001;28;20065;-65
2021/03/21 13:10:18;;;;;;;13.45;6.65;;;;;;;;;;5003532;28;20135;-65
2021/03/21 13:12:45;;;;;;;11.50;5.97;;;;;;;;;;5010185;28;20133;-65
2021/03/21 13:15:13;;;;;;;18.15;7.05;;;;;;;;;;5006495;28;20048;-66
2021/03/21 13:17:41;;;;;;;12.68;6.20;;;;;;;;;;4995101;28;20050;-65
2021/03/21 13:20:10;;;;;;;16.73;7.43;;;;;;;;;;4992930;28;20069;-65
2021/03/21 13:22:37;;;;;;;14.77;5.53;;;;;;;;;;5007388;28;20065;-65
2021/03/21 13:25:08;;;;;;;13.57;6.10;;;;;;;;;;5002127;28;20473;-66
2021/03/21 13:27:35;;;;;;;11.65;5.78;;;;;;;;;;5001380;28;20046;-66
2021/03/21 13:30:04;;;;;;;14.38;7.95;;;;;;;;;;4997394;28;20061;-66
2021/03/21 13:32:31;;;;;;;16.88;6.93;;;;;;;;;;4998802;28;20105;-66
2021/03/21 13:34:59;;;;;;;12.30;6.20;;;;;;;;;;4998070;28;20120;-66
2021/03/21 13:37:26;;;;;;;18.60;6.95;;;;;;;;;;4993783;28;20121;-65
2021/03/21 13:39:54;;;;;;;12.48;6.13;;;;;;;;;;5004399;28;20042;-66
2021/03/21 13:42:22;;;;;;;16.85;6.70;;;;;;;;;;5004577;28;20895;-65
2021/03/21 13:44:50;;;;;;;11.88;6.70;;;;;;;;;;4992479;28;20483;-65
2021/03/21 13:47:19;;;;;;;15.10;6.05;;;;;;;;;;4999722;28;20046;-66
2021/03/21 13:49:47;;;;;;;11.05;6.20;;;;;;;;;;5001894;28;20100;-66
2021/03/21 13:52:15;;;;;;;13.82;6.07;;;;;;;;;;5006296;28;20046;-69
2021/03/21 13:54:42;;;;;;;17.02;6.30;;;;;;;;;;4998769;28;20054;-69
2021/03/21 13:57:10;;;;;;;13.90;6.00;;;;;;;;;;4998973;28;20082;-70
2021/03/21 13:59:38;;;;;;;15.20;6.30;;;;;;;;;;4997021;28;20046;-70
2021/03/21 14:02:06;;;;;;;12.55;6.57;;;;;;;;;;4994384;28;20085;-70
2021/03/21 14:04:33;;;;;;;12.88;5.65;;;;;;;;;;5000311;28;20058;-70
2021/03/21 14:07:01;;;;;;;13.43;6.60;;;;;;;;;;5003223;28;20104;-71
2021/03/21 14:09:29;;;;;;;14.43;5.90;;;;;;;;;;4994925;28;20042;-71
2021/03/21 14:11:57;;;;;;;13.05;5.85;;;;;;;;;;5003860;28;20128;-69
2021/03/21 14:14:25;;;;;;;12.07;5.85;;;;;;;;;;5014221;28;20057;-71
2021/03/21 14:16:54;;;;;;;19.08;6.75;;;;;;;;;;5013346;28;20130;-70
2021/03/21 14:19:21;;;;;;;11.57;6.13;;;;;;;;;;5003701;28;20047;-71
2021/03/21 14:21:49;;;;;;;12.52;6.75;;;;;;;;;;4994276;28;20486;-71
2021/03/21 14:24:17;;;;;;;16.88;6.53;;;;;;;;;;4994846;28;20046;-70
2021/03/21 14:26:44;;;;;;;13.93;7.03;;;;;;;;;;4996531;28;20085;-70
2021/03/21 14:29:11;;;;;;;14.75;6.57;;;;;;;;;;4992741;28;20493;-71
2021/03/21 14:31:39;;;;;;;13.23;6.90;;;;;;;;;;4994529;28;20596;-70
2021/03/21 14:34:08;;;;;;;16.05;6.97;;;;;;;;;;4994296;28;20042;-71
2021/03/21 14:36:36;;;;;;;12.05;6.28;;;;;;;;;;5009137;28;20058;-69
2021/03/21 14:39:05;;;;;;;12.95;6.78;;;;;;;;;;4993978;28;20058;-70
2021/03/21 14:41:33;;;;;;;14.60;6.57;;;;;;;;;;4994463;28;20438;-71
2021/03/21 14:44:01;;;;;;;13.88;6.55;;;;;;;;;;4994035;28;20125;-70
2021/03/21 14:46:29;;;;;;;13.60;6.80;;;;;;;;;;5000588;28;20394;-70
2021/03/21 14:48:57;;;;;;;13.63;6.38;;;;;;;;;;5001941;28;20042;-67
2021/03/21 14:51:26;;;;;;;15.68;7.18;;;;;;;;;;4995957;28;20074;-68
2021/03/21 14:53:53;;;;;;;14.93;6.80;;;;;;;;;;5000196;28;20133;-67
2021/03/21 14:56:21;;;;;;;15.45;6.43;;;;;;;;;;4992785;28;20552;-68
2021/03/21 14:58:49;;;;;;;12.45;6.57;;;;;;;;;;4995680;28;20344;-69
2021/03/21 15:01:17;;;;;;;14.30;7.53;;;;;;;;;;4996503;28;20049;-69
2021/03/21 15:03:47;;;;;;;13.52;6.30;;;;;;;;;;4991217;28;20133;-70
2021/03/21 15:06:14;;;;;;;13.98;7.60;;;;;;;;;;5006297;28;20093;-68
2021/03/21 15:08:43;;;;;;;13.82;8.27;;;;;;;;;;4995839;28;20470;-69
2021/03/21 15:11:13;;;;;;;19.60;8.52;;;;;;;;;;4997763;28;20053;-69